createdAt,value
2018-08-12T00:00:16.085Z,47.89
2018-08-12T00:01:16.039Z,48.08
2018-08-12T00:02:16.035Z,50.18
2018-08-12T00:03:15.963Z,52.64
2018-08-12T00:04:16.874Z,56.54
2018-08-12T00:05:15.883Z,60.82
2018-08-12T00:06:15.860Z,58.92
2018-08-12T00:07:15.805Z,55.40
2018-08-12T00:08:15.764Z,52.45
2018-08-12T00:09:15.726Z,49.89
2018-08-12T00:10:15.711Z,49.22
2018-08-12T00:11:15.681Z,49.22
2018-08-12T00:12:15.615Z,49.79
2018-08-12T00:13:15.609Z,54.45
2018-08-12T00:14:15.546Z,57.59
2018-08-12T00:15:15.502Z,60.82
2018-08-12T00:16:15.471Z,64.43
2018-08-12T00:17:15.421Z,68.90
2018-08-12T00:18:15.399Z,68.99
2018-08-12T00:19:15.351Z,71.18
2018-08-12T00:20:15.302Z,56.26
2018-08-12T00:21:15.264Z,53.50
2018-08-12T00:22:15.234Z,55.97
2018-08-12T00:23:15.211Z,53.66
2018-08-12T00:24:15.156Z,50.43
2018-08-12T00:25:15.130Z,51.39
2018-08-12T00:26:15.067Z,42.27
2018-08-12T00:27:15.024Z,34.76
2018-08-12T00:28:14.991Z,32.20
2018-08-12T00:29:14.955Z,31.72
2018-08-12T00:30:14.931Z,29.82
2018-08-12T00:31:14.880Z,27.92
2018-08-12T00:32:14.833Z,27.92
2018-08-12T00:33:14.797Z,29.35
2018-08-12T00:34:14.759Z,28.49
2018-08-12T00:35:14.812Z,31.63
2018-08-12T00:36:14.669Z,32.57
2018-08-12T00:37:14.640Z,33.72
2018-08-12T00:38:14.593Z,36.38
2018-08-12T00:39:14.647Z,39.42
2018-08-12T00:40:14.536Z,42.65
2018-08-12T00:41:14.474Z,35.81
2018-08-12T00:42:14.441Z,29.44
2018-08-12T00:43:14.391Z,28.40
2018-08-12T00:44:14.427Z,36.94
2018-08-12T00:45:14.323Z,45.40
2018-08-12T00:46:14.325Z,61.55
2018-08-12T00:47:14.246Z,60.79
2018-08-12T00:48:14.270Z,53.00
2018-08-12T00:49:14.171Z,49.20
2018-08-12T00:50:14.115Z,44.26
2018-08-12T00:51:14.085Z,46.25
2018-08-12T00:52:14.037Z,51.95
2018-08-12T00:53:14.020Z,53.38
2018-08-12T00:54:13.962Z,57.09
2018-08-12T00:55:13.939Z,51.20
2018-08-12T00:56:13.899Z,41.13
2018-08-12T00:57:13.877Z,38.18
2018-08-12T00:58:13.828Z,37.71
2018-08-12T00:59:13.782Z,35.61
2018-08-12T01:00:13.759Z,32.96
2018-08-12T01:01:13.686Z,32.20
2018-08-12T01:02:13.673Z,34.48
2018-08-12T01:03:13.606Z,44.83
2018-08-12T01:04:13.572Z,43.79
2018-08-12T01:05:13.544Z,40.75
2018-08-12T01:06:13.511Z,41.41
2018-08-12T01:07:13.466Z,46.64
2018-08-12T01:08:13.413Z,39.61
2018-08-12T01:09:13.401Z,33.34
2018-08-12T01:10:13.387Z,30.20
2018-08-12T01:11:13.295Z,29.44
2018-08-12T01:12:13.250Z,32.77
2018-08-12T01:13:13.219Z,38.65
2018-08-12T01:14:13.207Z,42.27
2018-08-12T01:15:13.148Z,45.66
2018-08-12T01:16:13.117Z,48.61
2018-08-12T01:17:13.071Z,41.86
2018-08-12T01:18:13.043Z,33.80
2018-08-12T01:19:12.988Z,30.94
2018-08-12T01:20:12.955Z,31.04
2018-08-12T01:21:12.932Z,27.06
2018-08-12T01:22:12.874Z,19.18
2018-08-12T01:23:12.826Z,18.43
2018-08-12T01:24:12.794Z,21.66
2018-08-12T01:25:12.756Z,25.26
2018-08-12T01:26:12.722Z,25.84
2018-08-12T01:27:12.660Z,26.59
2018-08-12T01:28:12.628Z,25.55
2018-08-12T01:29:12.600Z,22.41
2018-08-12T01:30:12.548Z,18.90
2018-08-12T01:31:12.568Z,24.41
2018-08-12T01:32:12.468Z,34.76
2018-08-12T01:33:12.457Z,36.47
2018-08-12T01:34:12.388Z,36.09
2018-08-12T01:35:12.374Z,31.44
2018-08-12T01:36:12.302Z,32.96
2018-08-12T01:37:12.345Z,39.70
2018-08-12T01:38:12.235Z,45.12
2018-08-12T01:39:12.191Z,49.68
2018-08-12T01:40:12.175Z,52.24
2018-08-12T01:41:12.112Z,54.71
2018-08-12T01:42:12.102Z,54.52
2018-08-12T01:43:12.055Z,51.48
2018-08-12T01:44:11.997Z,46.45
2018-08-12T01:45:11.958Z,44.64
2018-08-12T01:46:11.921Z,49.20
2018-08-12T01:47:11.886Z,51.57
2018-08-12T01:48:11.896Z,54.33
2018-08-12T01:49:11.816Z,47.97
2018-08-12T01:50:11.771Z,46.04
2018-08-12T01:51:11.708Z,38.35
2018-08-12T01:52:11.681Z,30.66
2018-08-12T01:53:11.702Z,33.61
2018-08-12T01:54:11.596Z,31.33
2018-08-12T01:55:11.589Z,24.68
2018-08-12T01:56:11.527Z,20.98
2018-08-12T01:57:11.481Z,19.65
2018-08-12T01:58:11.479Z,15.95
2018-08-12T01:59:11.433Z,15.76
2018-08-12T02:00:11.359Z,12.34
2018-08-12T02:01:11.313Z,9.30
2018-08-12T02:02:11.294Z,11.30
2018-08-12T02:03:11.251Z,14.72
2018-08-12T02:04:11.199Z,20.50
2018-08-12T02:05:11.157Z,20.60
2018-08-12T02:06:11.123Z,22.50
2018-08-12T02:07:11.075Z,24.58
2018-08-12T02:08:11.062Z,24.58
2018-08-12T02:09:11.007Z,21.74
2018-08-12T02:10:10.981Z,22.31
2018-08-12T02:11:10.917Z,24.40
2018-08-12T02:12:10.902Z,26.96
2018-08-12T02:13:10.872Z,26.77
2018-08-12T02:14:10.823Z,20.50
2018-08-12T02:15:10.780Z,16.23
2018-08-12T02:16:10.729Z,14.14
2018-08-12T02:17:10.731Z,13.00
2018-08-12T02:18:10.661Z,11.58
2018-08-12T02:19:10.728Z,9.49
2018-08-12T02:20:10.563Z,9.97
2018-08-12T02:21:10.520Z,13.29
2018-08-12T02:22:10.478Z,15.95
2018-08-12T02:23:10.450Z,22.60
2018-08-12T02:24:10.445Z,28.96
2018-08-12T02:25:10.373Z,25.54
2018-08-12T02:26:10.347Z,20.50
2018-08-12T02:27:10.291Z,18.32
2018-08-12T02:28:10.254Z,18.70
2018-08-12T02:29:10.205Z,23.45
2018-08-12T02:30:10.170Z,27.34
2018-08-12T02:31:10.122Z,25.44
2018-08-12T02:32:10.089Z,24.10
2018-08-12T02:33:10.055Z,20.21
2018-08-12T02:34:10.026Z,9.97
2018-08-12T02:35:09.964Z,6.45
2018-08-12T02:36:09.932Z,5.32
2018-08-12T02:37:09.902Z,5.88
2018-08-12T02:38:09.859Z,9.11
2018-08-12T02:39:09.811Z,11.01
2018-08-12T02:40:09.772Z,10.82
2018-08-12T02:41:09.736Z,7.88
2018-08-12T02:42:09.686Z,4.74
2018-08-12T02:43:09.650Z,3.41
2018-08-12T02:44:09.625Z,6.55
2018-08-12T02:45:09.559Z,9.97
2018-08-12T02:46:09.562Z,11.10
2018-08-12T02:47:09.492Z,11.30
2018-08-12T02:48:09.463Z,12.05
2018-08-12T02:49:09.413Z,14.43
2018-08-12T02:50:09.379Z,15.76
2018-08-12T02:51:09.355Z,14.05
2018-08-12T02:52:09.317Z,11.58
2018-08-12T02:53:09.253Z,7.97
2018-08-12T02:54:09.202Z,7.78
2018-08-12T02:55:09.184Z,13.95
2018-08-12T02:56:09.123Z,24.49
2018-08-12T02:57:09.100Z,24.02
2018-08-12T02:58:09.066Z,23.83
2018-08-12T02:59:09.012Z,20.89
2018-08-12T03:00:08.977Z,17.47
2018-08-12T03:01:08.965Z,15.28
2018-08-12T03:02:08.891Z,14.71
2018-08-12T03:03:08.862Z,12.72
2018-08-12T03:04:08.813Z,9.97
2018-08-12T03:05:08.781Z,8.26
2018-08-12T03:06:08.732Z,8.26
2018-08-12T03:07:08.693Z,8.92
2018-08-12T03:08:08.660Z,6.64
2018-08-12T03:09:08.639Z,4.65
2018-08-12T03:10:08.582Z,3.32
2018-08-12T03:11:08.527Z,3.51
2018-08-12T03:12:08.503Z,5.88
2018-08-12T03:13:08.450Z,8.92
2018-08-12T03:14:08.420Z,10.82
2018-08-12T03:15:08.364Z,7.31
2018-08-12T03:16:08.340Z,5.79
2018-08-12T03:17:08.367Z,4.55
2018-08-12T03:18:08.260Z,3.80
2018-08-12T03:19:08.221Z,8.25
2018-08-12T03:20:08.187Z,5.12
2018-08-12T03:21:08.156Z,2.94
2018-08-12T03:22:08.107Z,0.00
2018-08-12T03:23:08.099Z,0.00
2018-08-12T03:24:08.017Z,0.00
2018-08-12T03:25:07.966Z,0.00
2018-08-12T03:26:07.984Z,0.00
2018-08-12T03:27:07.885Z,0.00
2018-08-12T03:28:07.864Z,0.00
2018-08-12T03:29:07.812Z,0.00
2018-08-12T03:30:07.821Z,1.14
2018-08-12T03:31:07.730Z,3.99
2018-08-12T03:32:07.681Z,4.55
2018-08-12T03:33:07.673Z,3.98
2018-08-12T03:34:07.660Z,4.08
2018-08-12T03:35:07.566Z,3.22
2018-08-12T03:36:07.536Z,1.42
2018-08-12T03:37:07.480Z,0.00
2018-08-12T03:38:07.449Z,0.00
2018-08-12T03:39:07.405Z,0.00
2018-08-12T03:40:07.382Z,0.19
2018-08-12T03:41:07.322Z,1.89
2018-08-12T03:42:07.282Z,4.74
2018-08-12T03:43:07.260Z,6.07
2018-08-12T03:44:07.228Z,5.02
2018-08-12T03:45:07.171Z,4.17
2018-08-12T03:46:07.126Z,4.83
2018-08-12T03:47:07.124Z,2.56
2018-08-12T03:48:07.060Z,0.76
2018-08-12T03:49:07.021Z,0.85
2018-08-12T03:50:06.972Z,2.09
2018-08-12T03:51:06.936Z,0.00
2018-08-12T03:52:06.884Z,0.00
2018-08-12T03:53:06.836Z,0.00
2018-08-12T03:54:06.803Z,0.00
2018-08-12T03:55:06.762Z,0.00
2018-08-12T03:56:06.732Z,0.00
2018-08-12T03:57:06.716Z,0.00
2018-08-12T03:58:06.656Z,0.00
2018-08-12T03:59:06.613Z,0.00
2018-08-12T04:00:06.571Z,0.00
2018-08-12T04:01:06.517Z,0.00
2018-08-12T04:02:06.496Z,0.00
2018-08-12T04:03:06.435Z,0.00
2018-08-12T04:04:06.407Z,0.00
2018-08-12T04:05:06.428Z,0.00
2018-08-12T04:06:06.342Z,0.00
2018-08-12T04:07:06.293Z,0.00
2018-08-12T04:08:06.243Z,0.00
2018-08-12T04:09:06.226Z,0.00
2018-08-12T04:10:06.164Z,0.00
2018-08-12T04:11:06.233Z,0.00
2018-08-12T04:12:06.097Z,0.00
2018-08-12T04:13:06.070Z,0.00
2018-08-12T04:14:05.995Z,0.00
2018-08-12T04:15:05.966Z,0.00
2018-08-12T04:16:05.931Z,0.00
2018-08-12T04:17:05.888Z,0.00
2018-08-12T04:18:05.831Z,0.00
2018-08-12T04:19:05.883Z,0.00
2018-08-12T04:20:05.768Z,0.00
2018-08-12T04:21:05.773Z,0.00
2018-08-12T04:22:05.693Z,0.00
2018-08-12T04:23:05.639Z,0.00
2018-08-12T04:24:05.613Z,0.00
2018-08-12T04:25:05.589Z,0.00
2018-08-12T04:26:05.522Z,0.00
2018-08-12T04:27:05.479Z,0.00
2018-08-12T04:28:05.457Z,0.00
2018-08-12T04:29:05.433Z,0.00
2018-08-12T04:30:05.369Z,0.00
2018-08-12T04:31:05.322Z,0.00
2018-08-12T04:32:05.283Z,0.00
2018-08-12T04:33:05.240Z,0.00
2018-08-12T04:34:05.204Z,0.00
2018-08-12T04:35:05.190Z,0.00
2018-08-12T04:36:05.115Z,0.00
2018-08-12T04:37:05.116Z,0.19
2018-08-12T04:38:05.043Z,3.32
2018-08-12T04:39:04.996Z,5.41
2018-08-12T04:40:04.956Z,6.36
2018-08-12T04:41:04.936Z,7.40
2018-08-12T04:42:04.878Z,5.79
2018-08-12T04:43:04.832Z,4.46
2018-08-12T04:44:04.794Z,3.99
2018-08-12T04:45:04.766Z,4.65
2018-08-12T04:46:04.730Z,4.56
2018-08-12T04:47:04.676Z,4.94
2018-08-12T04:48:04.641Z,7.03
2018-08-12T04:49:04.597Z,10.54
2018-08-12T04:50:04.635Z,12.44
2018-08-12T04:51:04.515Z,15.28
2018-08-12T04:52:04.482Z,14.62
2018-08-12T04:53:04.470Z,13.96
2018-08-12T04:54:04.397Z,13.77
2018-08-12T04:55:04.382Z,15.48
2018-08-12T04:56:04.327Z,18.43
2018-08-12T04:57:04.277Z,21.08
2018-08-12T04:58:04.232Z,18.04
2018-08-12T04:59:04.195Z,16.14
2018-08-12T05:00:04.174Z,15.20
2018-08-12T05:01:04.146Z,15.86
2018-08-12T05:02:04.072Z,16.43
2018-08-12T05:03:04.055Z,19.09
2018-08-12T05:04:04.014Z,21.18
2018-08-12T05:05:03.959Z,23.27
2018-08-12T05:06:03.926Z,27.16
2018-08-12T05:07:03.904Z,31.34
2018-08-12T05:08:03.838Z,35.16
2018-08-12T05:09:03.796Z,39.72
2018-08-12T05:10:03.798Z,37.35
2018-08-12T05:11:03.721Z,35.83
2018-08-12T05:12:03.707Z,36.58
2018-08-12T05:13:03.642Z,39.06
2018-08-12T05:14:03.641Z,47.33
2018-08-12T05:15:03.581Z,47.89
2018-08-12T05:16:03.551Z,51.98
2018-08-12T05:17:03.488Z,54.17
2018-08-12T05:18:03.443Z,51.03
2018-08-12T05:19:03.417Z,53.12
2018-08-12T05:20:03.367Z,53.72
2018-08-12T05:21:03.333Z,60.57
2018-08-12T05:22:03.299Z,70.17
2018-08-12T05:23:03.250Z,75.34
2018-08-12T05:24:03.231Z,78.19
2018-08-12T05:25:03.179Z,83.14
2018-08-12T05:26:03.135Z,87.80
2018-08-12T05:27:03.100Z,87.61
2018-08-12T05:28:03.063Z,83.23
2018-08-12T05:29:03.048Z,85.99
2018-08-12T05:30:02.984Z,93.32
2018-08-12T05:31:02.934Z,96.79
2018-08-12T05:32:02.916Z,99.99
2018-08-12T05:33:02.910Z,99.99
2018-08-12T05:34:02.828Z,99.99
2018-08-12T05:35:02.794Z,99.99
2018-08-12T05:36:02.806Z,99.99
2018-08-12T05:37:02.709Z,99.99
2018-08-12T05:38:02.670Z,99.99
2018-08-12T05:39:02.651Z,99.99
2018-08-12T05:40:02.597Z,99.99
2018-08-12T05:41:02.573Z,99.99
2018-08-12T05:42:02.522Z,99.99
2018-08-12T05:43:02.476Z,99.99
2018-08-12T05:44:02.457Z,99.99
2018-08-12T05:45:02.400Z,99.99
2018-08-12T05:46:02.363Z,99.99
2018-08-12T05:47:02.339Z,99.99
2018-08-12T05:48:02.308Z,99.99
2018-08-12T05:49:02.373Z,99.99
2018-08-12T05:50:02.216Z,99.99
2018-08-12T05:51:02.185Z,99.99
2018-08-12T05:52:02.141Z,99.99
2018-08-12T05:53:02.106Z,99.99
2018-08-12T05:54:02.066Z,99.99
2018-08-12T05:55:02.027Z,99.99
2018-08-12T05:56:02.007Z,99.99
2018-08-12T05:57:01.948Z,99.99
2018-08-12T05:58:01.914Z,99.99
2018-08-12T05:59:01.883Z,99.99
2018-08-12T06:00:01.850Z,99.99
2018-08-12T06:01:01.806Z,99.99
2018-08-12T06:02:01.794Z,99.99
2018-08-12T06:03:01.747Z,99.99
2018-08-12T06:04:01.692Z,99.99
2018-08-12T06:05:01.665Z,99.99
2018-08-12T06:06:01.638Z,99.99
2018-08-12T06:07:01.676Z,99.99
2018-08-12T06:08:01.565Z,99.99
2018-08-12T06:09:01.520Z,99.99
2018-08-12T06:10:01.492Z,99.99
2018-08-12T06:11:01.483Z,99.99
2018-08-12T06:12:01.451Z,99.99
2018-08-12T06:13:01.369Z,99.99
2018-08-12T06:14:01.437Z,99.99
2018-08-12T06:15:01.310Z,99.99
2018-08-12T06:16:01.254Z,99.99
2018-08-12T06:17:01.269Z,99.99
2018-08-12T06:18:01.191Z,99.99
2018-08-12T06:19:01.141Z,99.99
2018-08-12T06:20:01.107Z,99.99
2018-08-12T06:21:01.074Z,99.99
2018-08-12T06:22:01.027Z,99.99
2018-08-12T06:23:00.996Z,99.99
2018-08-12T06:24:00.969Z,99.99
2018-08-12T06:25:00.920Z,99.99
2018-08-12T06:26:00.905Z,99.99
2018-08-12T06:27:00.861Z,99.99
2018-08-12T06:28:00.841Z,99.99
2018-08-12T06:29:00.800Z,99.99
2018-08-12T06:30:00.750Z,99.99
2018-08-12T06:31:00.719Z,99.99
2018-08-12T06:32:00.682Z,99.99
2018-08-12T06:33:00.704Z,99.99
2018-08-12T06:34:00.615Z,99.99
2018-08-12T06:35:00.594Z,99.99
2018-08-12T06:36:00.558Z,99.99
2018-08-12T06:37:00.503Z,99.99
2018-08-12T06:38:00.469Z,99.99
2018-08-12T06:39:00.453Z,99.99
2018-08-12T06:40:00.401Z,99.99
2018-08-12T06:41:00.368Z,99.99
2018-08-12T06:42:00.358Z,99.99
2018-08-12T06:43:00.310Z,99.99
2018-08-12T06:44:00.299Z,99.99
2018-08-12T06:45:00.234Z,99.99
2018-08-12T06:46:00.201Z,99.99
2018-08-12T06:47:00.176Z,99.99
2018-08-12T06:48:00.141Z,99.99
2018-08-12T06:49:00.167Z,99.99
2018-08-12T06:50:00.066Z,99.99
2018-08-12T06:51:00.030Z,99.99
2018-08-12T06:52:00.013Z,99.99
2018-08-12T06:52:59.974Z,99.99
2018-08-12T06:53:59.939Z,99.99
2018-08-12T06:54:59.887Z,99.99
2018-08-12T06:55:59.936Z,99.99
2018-08-12T06:56:59.823Z,95.26
2018-08-12T06:57:59.803Z,96.51
2018-08-12T06:58:59.779Z,89.75
2018-08-12T06:59:59.725Z,90.94
2018-08-12T07:00:59.709Z,85.71
2018-08-12T07:01:59.679Z,80.65
2018-08-12T07:02:59.641Z,77.33
2018-08-12T07:03:59.617Z,75.73
2018-08-12T07:04:59.576Z,75.92
2018-08-12T07:05:59.538Z,73.65
2018-08-12T07:06:59.522Z,72.30
2018-08-12T07:08:01.548Z,71.37
2018-08-12T07:09:01.478Z,70.12
2018-08-12T07:10:01.527Z,68.23
2018-08-12T07:10:59.423Z,67.49
2018-08-12T07:12:01.565Z,65.85
2018-08-12T07:12:59.350Z,67.52
2018-08-12T07:13:59.300Z,67.78
2018-08-12T07:14:59.283Z,66.94
2018-08-12T07:15:59.240Z,62.79
2018-08-12T07:16:59.210Z,62.60
2018-08-12T07:17:59.184Z,60.69
2018-08-12T07:18:59.164Z,55.74
2018-08-12T07:19:59.135Z,52.07
2018-08-12T07:20:59.108Z,53.16
2018-08-12T07:21:59.101Z,56.09
2018-08-12T07:22:59.056Z,52.34
2018-08-12T07:23:59.023Z,49.54
2018-08-12T07:24:59.003Z,51.04
2018-08-12T07:25:58.970Z,47.77
2018-08-12T07:26:58.948Z,47.02
2018-08-12T07:27:58.921Z,46.26
2018-08-12T07:28:58.894Z,44.59
2018-08-12T07:29:58.881Z,44.49
2018-08-12T07:30:58.846Z,47.93
2018-08-12T07:31:58.819Z,43.20
2018-08-12T07:32:58.839Z,42.15
2018-08-12T07:33:58.784Z,44.79
2018-08-12T07:34:58.742Z,45.23
2018-08-12T07:35:58.719Z,40.27
2018-08-12T07:36:58.717Z,40.56
2018-08-12T07:38:00.444Z,40.85
2018-08-12T07:39:00.611Z,42.04
2018-08-12T07:40:00.814Z,43.91
2018-08-12T07:40:58.622Z,38.54
2018-08-12T07:41:58.588Z,39.96
2018-08-12T07:42:58.562Z,39.67
2018-08-12T07:43:58.546Z,39.67
2018-08-12T07:44:58.498Z,40.17
2018-08-12T07:45:58.483Z,40.08
2018-08-12T07:46:58.465Z,37.95
2018-08-12T07:47:58.451Z,37.37
2018-08-12T07:48:58.432Z,38.56
2018-08-12T07:49:58.393Z,39.16
2018-08-12T07:50:58.398Z,38.09
2018-08-12T07:51:58.389Z,36.16
2018-08-12T07:52:58.347Z,35.36
2018-08-12T07:53:58.318Z,35.73
2018-08-12T07:54:58.311Z,36.45
2018-08-12T07:55:58.304Z,36.84
2018-08-12T07:56:58.312Z,34.99
2018-08-12T07:57:58.312Z,34.31
2018-08-12T07:58:58.284Z,35.41
2018-08-12T07:59:59.089Z,34.99
2018-08-12T08:00:58.494Z,34.40
2018-08-12T08:01:59.107Z,33.64
2018-08-12T08:03:05.095Z,34.42
2018-08-12T08:03:58.109Z,34.22
2018-08-12T08:04:58.158Z,35.71
2018-08-12T08:05:58.088Z,32.97
2018-08-12T08:06:58.068Z,33.43
2018-08-12T08:07:58.052Z,34.03
2018-08-12T08:08:58.075Z,33.14
2018-08-12T08:09:58.017Z,34.48
2018-08-12T08:10:58.048Z,34.19
2018-08-12T08:11:58.072Z,33.92
2018-08-12T08:12:57.965Z,34.19
2018-08-12T08:13:58.437Z,33.72
2018-08-12T08:14:57.980Z,34.59
2018-08-12T08:15:57.971Z,35.75
2018-08-12T08:16:58.100Z,34.88
2018-08-12T08:17:57.905Z,34.39
2018-08-12T08:18:57.908Z,34.76
2018-08-12T08:19:57.865Z,35.34
2018-08-12T08:20:57.856Z,36.92
2018-08-12T08:21:58.730Z,35.86
2018-08-12T08:22:57.827Z,34.83
2018-08-12T08:23:57.947Z,33.25
2018-08-12T08:24:58.732Z,33.15
2018-08-12T08:25:58.142Z,32.87
2018-08-12T08:26:57.749Z,32.50
2018-08-12T08:27:57.694Z,33.11
2018-08-12T08:28:58.146Z,31.41
2018-08-12T08:30:00.473Z,33.56
2018-08-12T08:30:58.629Z,32.45
2018-08-12T08:32:00.652Z,33.29
2018-08-12T08:33:00.503Z,33.96
2018-08-12T08:33:57.843Z,35.52
2018-08-12T08:34:57.599Z,35.71
2018-08-12T08:35:59.513Z,35.25
2018-08-12T08:36:58.517Z,36.14
2018-08-12T08:37:59.633Z,35.16
2018-08-12T08:38:57.448Z,32.81
2018-08-12T08:39:57.426Z,35.25
2018-08-12T08:40:57.417Z,34.48
2018-08-12T08:41:57.531Z,33.86
2018-08-12T08:42:57.391Z,33.75
2018-08-12T08:43:57.404Z,34.14
2018-08-12T08:44:57.333Z,35.63
2018-08-12T08:45:57.369Z,34.47
2018-08-12T08:46:59.119Z,35.25
2018-08-12T08:48:00.536Z,32.82
2018-08-12T08:48:57.574Z,34.31
2018-08-12T08:49:58.559Z,33.31
2018-08-12T08:50:59.235Z,33.59
2018-08-12T08:52:00.574Z,32.63
2018-08-12T08:52:59.078Z,33.04
2018-08-12T08:53:59.043Z,32.96
2018-08-12T08:54:59.505Z,31.51
2018-08-12T08:55:57.296Z,31.92
2018-08-12T08:56:57.112Z,31.64
2018-08-12T08:57:57.112Z,31.75
2018-08-12T08:58:57.127Z,30.49
2018-08-12T08:59:57.068Z,29.21
2018-08-12T09:00:57.044Z,29.49
2018-08-12T09:01:57.023Z,30.76
2018-08-12T09:02:57.006Z,30.57
2018-08-12T09:03:57.040Z,31.31
2018-08-12T09:04:57.050Z,32.52
2018-08-12T09:05:56.960Z,33.39
2018-08-12T09:07:00.142Z,33.11
2018-08-12T09:07:59.266Z,33.41
2018-08-12T09:08:57.929Z,33.31
2018-08-12T09:09:58.982Z,33.70
2018-08-12T09:10:59.582Z,35.38
2018-08-12T09:11:57.970Z,33.92
2018-08-12T09:12:59.081Z,33.53
2018-08-12T09:13:59.076Z,32.63
2018-08-12T09:14:58.609Z,33.22
2018-08-12T09:15:58.660Z,32.84
2018-08-12T09:16:56.739Z,34.48
2018-08-12T09:17:56.717Z,34.11
2018-08-12T09:18:56.697Z,33.90
2018-08-12T09:19:56.680Z,32.75
2018-08-12T09:20:56.665Z,32.68
2018-08-12T09:21:57.758Z,32.87
2018-08-12T09:22:56.630Z,31.31
2018-08-12T09:23:56.646Z,32.79
2018-08-12T09:24:56.595Z,33.20
2018-08-12T09:25:56.567Z,31.13
2018-08-12T09:26:56.562Z,31.82
2018-08-12T09:27:56.522Z,31.31
2018-08-12T09:28:56.514Z,31.43
2018-08-12T09:29:56.496Z,30.65
2018-08-12T09:30:56.466Z,31.30
2018-08-12T09:31:56.473Z,33.15
2018-08-12T09:32:56.443Z,31.88
2018-08-12T09:33:56.438Z,31.38
2018-08-12T09:34:58.479Z,32.08
2018-08-12T09:35:56.912Z,31.22
2018-08-12T09:36:56.383Z,30.37
2018-08-12T09:37:57.232Z,30.27
2018-08-12T09:38:56.950Z,30.57
2018-08-12T09:39:57.990Z,30.94
2018-08-12T09:40:57.781Z,30.52
2018-08-12T09:42:00.378Z,33.17
2018-08-12T09:42:56.560Z,32.21
2018-08-12T09:43:59.460Z,31.74
2018-08-12T09:45:00.120Z,32.01
2018-08-12T09:45:56.938Z,31.84
2018-08-12T09:46:57.176Z,30.74
2018-08-12T09:47:59.038Z,32.21
2018-08-12T09:48:57.805Z,31.43
2018-08-12T09:49:59.090Z,31.65
2018-08-12T09:50:58.005Z,29.42
2018-08-12T09:51:58.262Z,29.60
2018-08-12T09:52:56.945Z,29.95
2018-08-12T09:53:58.004Z,32.31
2018-08-12T09:54:58.075Z,30.71
2018-08-12T09:55:57.585Z,32.50
2018-08-12T09:56:57.303Z,32.99
2018-08-12T09:57:56.324Z,33.56
2018-08-12T09:58:57.240Z,35.89
2018-08-12T09:59:57.260Z,33.88
2018-08-12T10:00:56.151Z,32.92
2018-08-12T10:01:56.362Z,32.03
2018-08-12T10:02:57.238Z,33.46
2018-08-12T10:03:55.956Z,35.42
2018-08-12T10:04:55.822Z,33.78
2018-08-12T10:05:55.805Z,33.78
2018-08-12T10:06:55.813Z,32.94
2018-08-12T10:07:55.758Z,31.77
2018-08-12T10:08:56.081Z,31.46
2018-08-12T10:09:56.253Z,30.90
2018-08-12T10:10:56.812Z,30.90
2018-08-12T10:11:55.754Z,31.49
2018-08-12T12:17:25.843Z,28.05
2018-08-12T12:18:25.765Z,27.36
2018-08-12T12:20:18.984Z,27.65
2018-08-12T12:21:18.816Z,28.23
2018-08-12T12:23:12.065Z,28.68
2018-08-12T12:24:11.875Z,29.86
2018-08-12T12:26:05.131Z,30.16
2018-08-12T12:27:04.936Z,28.79
2018-08-12T12:28:58.756Z,28.39
2018-08-12T12:29:58.510Z,27.89
2018-08-12T12:30:58.515Z,29.15
2018-08-12T12:31:58.464Z,29.36
2018-08-12T12:32:58.448Z,30.55
2018-08-12T12:33:58.425Z,30.06
2018-08-12T12:34:58.397Z,30.55
2018-08-12T12:35:58.386Z,31.23
2018-08-12T12:36:58.430Z,28.97
2018-08-12T12:37:58.388Z,29.46
2018-08-12T12:38:58.304Z,29.75
2018-08-12T12:39:58.307Z,28.97
2018-08-12T12:40:58.300Z,29.35
2018-08-12T12:41:58.277Z,29.27
2018-08-12T12:42:58.330Z,29.28
2018-08-12T12:43:58.226Z,29.49
2018-08-12T12:44:58.206Z,29.20
2018-08-12T12:45:58.176Z,28.88
2018-08-12T12:46:58.154Z,30.42
2018-08-12T12:47:58.122Z,30.71
2018-08-12T12:48:58.123Z,30.05
2018-08-12T12:49:58.089Z,29.38
2018-08-12T12:51:00.847Z,30.66
2018-08-12T12:51:58.065Z,28.59
2018-08-12T12:52:58.073Z,28.39
2018-08-12T12:53:58.021Z,29.27
2018-08-12T12:54:58.027Z,28.11
2018-08-12T12:55:57.978Z,28.68
2018-08-12T12:56:57.974Z,28.09
2018-08-12T12:57:57.996Z,29.36
2018-08-12T12:58:57.922Z,28.89
2018-08-12T12:59:57.905Z,28.79
2018-08-12T13:00:57.884Z,27.03
2018-08-12T13:01:57.850Z,26.56
2018-08-12T13:02:57.831Z,27.02
2018-08-12T13:03:57.811Z,27.81
2018-08-12T13:04:57.801Z,27.61
2018-08-12T13:05:57.778Z,28.78
2018-08-12T13:06:57.766Z,28.97
2018-08-12T13:07:57.755Z,28.89
2018-08-12T13:08:57.711Z,27.81
2018-08-12T13:09:57.699Z,28.52
2018-08-12T13:10:57.674Z,28.52
2018-08-12T13:11:57.649Z,28.32
2018-08-12T13:12:57.639Z,27.42
2018-08-12T13:13:57.636Z,28.01
2018-08-12T13:14:57.590Z,28.79
2018-08-12T13:15:57.594Z,29.38
2018-08-12T13:16:57.563Z,28.59
2018-08-12T13:17:57.730Z,27.90
2018-08-12T13:18:57.524Z,28.88
2018-08-12T13:19:57.505Z,32.03
2018-08-12T13:20:57.472Z,29.28
2018-08-12T13:21:57.463Z,28.69
2018-08-12T13:22:57.425Z,28.49
2018-08-12T13:23:57.417Z,29.66
2018-08-12T13:24:57.405Z,28.49
2018-08-12T13:25:57.395Z,30.55
2018-08-12T13:26:57.352Z,29.30
2018-08-12T13:27:57.329Z,28.63
2018-08-12T13:28:57.321Z,26.09
2018-08-12T13:29:57.291Z,26.17
2018-08-12T13:30:57.288Z,26.76
2018-08-12T13:31:57.257Z,27.44
2018-08-12T13:32:57.257Z,26.34
2018-08-12T13:33:57.222Z,27.41
2018-08-12T13:34:57.194Z,28.39
2018-08-12T13:35:57.178Z,28.69
2018-08-12T13:36:57.144Z,28.11
2018-08-12T13:37:57.126Z,27.73
2018-08-12T13:38:57.115Z,25.88
2018-08-12T13:39:57.090Z,26.95
2018-08-12T13:40:57.092Z,27.94
2018-08-12T13:41:57.047Z,26.37
2018-08-12T13:42:57.031Z,25.20
2018-08-12T13:43:57.004Z,25.29
2018-08-12T13:44:57.001Z,26.06
2018-08-12T13:45:56.979Z,28.71
2018-08-12T13:46:56.994Z,26.43
2018-08-12T13:47:56.928Z,27.42
2018-08-12T13:48:57.034Z,27.12
2018-08-12T13:49:56.905Z,27.22
2018-08-12T13:50:56.868Z,26.91
2018-08-12T13:51:56.857Z,26.52
2018-08-12T13:52:56.832Z,27.30
2018-08-12T13:53:56.812Z,27.98
2018-08-12T13:54:56.794Z,27.70
2018-08-12T13:55:56.784Z,28.00
2018-08-12T13:56:56.824Z,27.98
2018-08-12T13:57:56.735Z,27.98
2018-08-12T13:58:56.713Z,28.77
2018-08-12T13:59:56.689Z,27.50
2018-08-12T14:00:56.723Z,30.73
2018-08-12T14:01:56.662Z,26.82
2018-08-12T14:02:56.649Z,27.13
2018-08-12T14:03:56.620Z,27.23
2018-08-12T14:04:56.602Z,26.14
2018-08-12T14:05:56.598Z,27.02
2018-08-12T14:06:56.569Z,27.02
2018-08-12T14:07:56.535Z,26.63
2018-08-12T14:08:56.511Z,26.63
2018-08-12T14:09:56.493Z,27.61
2018-08-12T14:10:56.494Z,28.68
2018-08-12T14:11:56.462Z,27.13
2018-08-12T14:12:56.436Z,27.13
2018-08-12T14:13:56.430Z,26.27
2018-08-12T14:14:56.387Z,26.06
2018-08-12T14:15:56.366Z,27.62
2018-08-12T14:16:56.344Z,26.54
2018-08-12T14:17:56.339Z,26.63
2018-08-12T14:18:56.307Z,28.99
2018-08-12T14:19:56.296Z,27.05
2018-08-12T14:20:56.264Z,26.37
2018-08-12T14:21:56.271Z,27.83
2018-08-12T14:22:56.242Z,29.00
2018-08-12T14:23:56.216Z,26.76
2018-08-12T14:24:56.430Z,28.91
2018-08-12T14:25:56.277Z,29.88
2018-08-12T14:26:56.160Z,26.28
2018-08-12T14:27:56.128Z,25.89
2018-08-12T14:28:56.158Z,25.40
2018-08-12T14:29:56.092Z,26.48
2018-08-12T14:30:56.065Z,25.29
2018-08-12T14:31:56.045Z,24.99
2018-08-12T14:32:56.042Z,25.67
2018-08-12T14:33:56.010Z,26.15
2018-08-12T14:34:55.994Z,27.15
2018-08-12T14:35:55.978Z,25.59
2018-08-12T14:36:55.978Z,24.69
2018-08-12T14:37:55.928Z,26.45
2018-08-12T14:38:55.900Z,25.27
2018-08-12T14:39:55.907Z,25.68
2018-08-12T14:40:55.886Z,25.49
2018-08-12T14:41:55.990Z,24.22
2018-08-12T14:42:55.847Z,24.32
2018-08-12T14:43:55.843Z,24.49
2018-08-12T14:44:55.801Z,25.07
2018-08-12T14:45:55.783Z,26.54
2018-08-12T14:46:55.747Z,25.08
2018-08-12T14:47:55.748Z,26.06
2018-08-12T14:48:55.705Z,25.47
2018-08-12T14:49:55.696Z,25.49
2018-08-12T14:50:55.671Z,24.60
2018-08-12T14:51:55.652Z,25.08
2018-08-12T14:52:55.638Z,25.57
2018-08-12T14:53:55.691Z,25.96
2018-08-12T14:54:55.609Z,26.25
2018-08-12T14:55:55.569Z,26.04
2018-08-12T14:56:55.619Z,26.63
2018-08-12T14:57:55.636Z,27.01
2018-08-12T14:58:55.610Z,27.19
2018-08-12T14:59:55.526Z,26.98
2018-08-12T15:00:55.521Z,26.79
2018-08-12T15:01:55.476Z,27.58
2018-08-12T15:02:55.433Z,27.29
2018-08-12T15:03:55.545Z,26.51